sensor_id;sensor_type;location;lat;lon;timestamp;temperature;humidity
9730;DHT22;4904;49.152;11.004;2022-10-16T00:00:38;15.90;99.90
9730;DHT22;4904;49.152;11.004;2022-10-16T00:03:06;16.00;99.90
9730;DHT22;4904;49.152;11.004;2022-10-16T00:05:38;16.00;99.90
9730;DHT22;4904;49.152;11.004;2022-10-16T00:08:06;15.90;99.90
9730;DHT22;4904;49.152;11.004;2022-10-16T00:10:33;15.80;99.90
9730;DHT22;4904;49.152;11.004;2022-10-16T00:13:00;15.70;99.90
9730;DHT22;4904;49.152;11.004;2022-10-16T00:15:27;15.60;99.90
9730;DHT22;4904;49.152;11.004;2022-10-16T00:17:54;15.70;99.90
9730;DHT22;4904;49.152;11.004;2022-10-16T00:20:21;15.60;99.90
9730;DHT22;4904;49.152;11.004;2022-10-16T00:22:49;15.80;99.90
9730;DHT22;4904;49.152;11.004;2022-10-16T00:25:16;15.80;99.90
9730;DHT22;4904;49.152;11.004;2022-10-16T00:27:43;15.90;99.90
9730;DHT22;4904;49.152;11.004;2022-10-16T00:30:17;15.90;99.90
9730;DHT22;4904;49.152;11.004;2022-10-16T00:32:44;15.90;99.90
9730;DHT22;4904;49.152;11.004;2022-10-16T00:35:11;15.90;99.90
9730;DHT22;4904;49.152;11.004;2022-10-16T00:37:38;15.90;99.90
9730;DHT22;4904;49.152;11.004;2022-10-16T00:40:08;15.90;99.90
9730;DHT22;4904;49.152;11.004;2022-10-16T00:42:35;15.90;99.90
9730;DHT22;4904;49.152;11.004;2022-10-16T00:45:03;15.90;99.90
9730;DHT22;4904;49.152;11.004;2022-10-16T00:47:34;15.90;99.90
9730;DHT22;4904;49.152;11.004;2022-10-16T00:50:06;15.90;99.90
9730;DHT22;4904;49.152;11.004;2022-10-16T00:52:33;15.90;99.90
9730;DHT22;4904;49.152;11.004;2022-10-16T00:55:02;15.60;99.90
9730;DHT22;4904;49.152;11.004;2022-10-16T00:57:30;15.80;99.90
9730;DHT22;4904;49.152;11.004;2022-10-16T00:59:57;15.70;99.90
9730;DHT22;4904;49.152;11.004;2022-10-16T01:02:24;15.80;99.90
9730;DHT22;4904;49.152;11.004;2022-10-16T01:04:53;15.80;99.90
9730;DHT22;4904;49.152;11.004;2022-10-16T01:07:30;15.80;99.90
9730;DHT22;4904;49.152;11.004;2022-10-16T01:10:07;15.70;99.90
9730;DHT22;4904;49.152;11.004;2022-10-16T01:12:41;15.70;99.90
9730;DHT22;4904;49.152;11.004;2022-10-16T01:15:16;15.70;99.90
9730;DHT22;4904;49.152;11.004;2022-10-16T01:17:48;15.70;99.90
9730;DHT22;4904;49.152;11.004;2022-10-16T01:20:24;15.60;99.90
9730;DHT22;4904;49.152;11.004;2022-10-16T01:23:02;15.60;99.90
9730;DHT22;4904;49.152;11.004;2022-10-16T01:25:39;15.60;99.90
9730;DHT22;4904;49.152;11.004;2022-10-16T01:28:14;15.60;99.90
9730;DHT22;4904;49.152;11.004;2022-10-16T01:30:43;15.60;99.90
9730;DHT22;4904;49.152;11.004;2022-10-16T01:33:16;15.60;99.90
9730;DHT22;4904;49.152;11.004;2022-10-16T01:35:47;15.60;99.90
9730;DHT22;4904;49.152;11.004;2022-10-16T01:38:17;15.60;99.90
9730;DHT22;4904;49.152;11.004;2022-10-16T01:40:49;15.60;99.90
9730;DHT22;4904;49.152;11.004;2022-10-16T01:43:20;15.60;99.90
9730;DHT22;4904;49.152;11.004;2022-10-16T01:45:49;15.60;99.90
9730;DHT22;4904;49.152;11.004;2022-10-16T01:48:19;15.60;99.90
9730;DHT22;4904;49.152;11.004;2022-10-16T01:50:53;15.60;99.90
9730;DHT22;4904;49.152;11.004;2022-10-16T01:53:22;15.60;99.90
9730;DHT22;4904;49.152;11.004;2022-10-16T01:55:52;15.60;99.90
9730;DHT22;4904;49.152;11.004;2022-10-16T01:58:22;15.60;99.90
9730;DHT22;4904;49.152;11.004;2022-10-16T02:00:50;15.60;99.90
9730;DHT22;4904;49.152;11.004;2022-10-16T02:03:19;15.60;99.90
9730;DHT22;4904;49.152;11.004;2022-10-16T02:05:49;15.60;99.90
9730;DHT22;4904;49.152;11.004;2022-10-16T02:08:17;15.60;99.90
9730;DHT22;4904;49.152;11.004;2022-10-16T02:10:44;15.60;99.90
9730;DHT22;4904;49.152;11.004;2022-10-16T02:13:17;15.70;99.90
9730;DHT22;4904;49.152;11.004;2022-10-16T02:15:46;15.70;99.90
9730;DHT22;4904;49.152;11.004;2022-10-16T02:18:13;15.70;99.90
9730;DHT22;4904;49.152;11.004;2022-10-16T02:20:46;15.70;99.90
9730;DHT22;4904;49.152;11.004;2022-10-16T02:23:19;15.70;99.90
9730;DHT22;4904;49.152;11.004;2022-10-16T02:25:47;15.60;99.90
9730;DHT22;4904;49.152;11.004;2022-10-16T02:28:22;15.70;99.90
9730;DHT22;4904;49.152;11.004;2022-10-16T02:30:54;15.70;99.90
9730;DHT22;4904;49.152;11.004;2022-10-16T02:33:24;15.70;99.90
9730;DHT22;4904;49.152;11.004;2022-10-16T02:35:53;15.70;99.90
9730;DHT22;4904;49.152;11.004;2022-10-16T02:38:21;15.60;99.90
9730;DHT22;4904;49.152;11.004;2022-10-16T02:40:49;15.60;99.90
9730;DHT22;4904;49.152;11.004;2022-10-16T02:43:17;15.60;99.90
9730;DHT22;4904;49.152;11.004;2022-10-16T02:45:44;15.60;99.90
9730;DHT22;4904;49.152;11.004;2022-10-16T02:48:12;15.50;99.90
9730;DHT22;4904;49.152;11.004;2022-10-16T02:50:40;15.60;99.90
9730;DHT22;4904;49.152;11.004;2022-10-16T02:53:07;15.70;99.90
9730;DHT22;4904;49.152;11.004;2022-10-16T02:55:34;15.70;99.90
9730;DHT22;4904;49.152;11.004;2022-10-16T02:58:00;15.70;99.90
9730;DHT22;4904;49.152;11.004;2022-10-16T03:00:27;15.70;99.90
9730;DHT22;4904;49.152;11.004;2022-10-16T03:02:55;15.70;99.90
9730;DHT22;4904;49.152;11.004;2022-10-16T03:05:23;15.70;99.90
9730;DHT22;4904;49.152;11.004;2022-10-16T03:07:50;15.70;99.90
9730;DHT22;4904;49.152;11.004;2022-10-16T03:10:18;15.70;99.90
9730;DHT22;4904;49.152;11.004;2022-10-16T03:12:45;15.70;99.90
9730;DHT22;4904;49.152;11.004;2022-10-16T03:15:12;15.70;99.90
9730;DHT22;4904;49.152;11.004;2022-10-16T03:17:38;15.70;99.90
9730;DHT22;4904;49.152;11.004;2022-10-16T03:20:06;15.70;99.90
9730;DHT22;4904;49.152;11.004;2022-10-16T03:22:35;15.70;99.90
9730;DHT22;4904;49.152;11.004;2022-10-16T03:25:02;15.70;99.90
9730;DHT22;4904;49.152;11.004;2022-10-16T03:27:29;15.70;99.90
9730;DHT22;4904;49.152;11.004;2022-10-16T03:29:56;15.60;99.90
9730;DHT22;4904;49.152;11.004;2022-10-16T03:32:23;15.60;99.90
9730;DHT22;4904;49.152;11.004;2022-10-16T03:34:50;15.60;99.90
9730;DHT22;4904;49.152;11.004;2022-10-16T03:37:19;15.60;99.90
9730;DHT22;4904;49.152;11.004;2022-10-16T03:39:47;15.60;99.90
9730;DHT22;4904;49.152;11.004;2022-10-16T03:42:14;15.70;99.90
9730;DHT22;4904;49.152;11.004;2022-10-16T03:44:41;15.70;99.90
9730;DHT22;4904;49.152;11.004;2022-10-16T03:47:08;15.70;99.90
9730;DHT22;4904;49.152;11.004;2022-10-16T03:49:35;15.70;99.90
9730;DHT22;4904;49.152;11.004;2022-10-16T03:52:02;15.50;99.90
9730;DHT22;4904;49.152;11.004;2022-10-16T03:54:29;15.70;99.90
9730;DHT22;4904;49.152;11.004;2022-10-16T03:56:57;15.60;99.90
9730;DHT22;4904;49.152;11.004;2022-10-16T03:59:24;15.60;99.90
9730;DHT22;4904;49.152;11.004;2022-10-16T04:01:51;15.60;99.90
9730;DHT22;4904;49.152;11.004;2022-10-16T04:04:18;15.60;99.90
9730;DHT22;4904;49.152;11.004;2022-10-16T04:06:45;15.60;99.90
9730;DHT22;4904;49.152;11.004;2022-10-16T04:09:12;15.50;99.90
9730;DHT22;4904;49.152;11.004;2022-10-16T04:11:39;15.60;99.90
9730;DHT22;4904;49.152;11.004;2022-10-16T04:14:07;15.50;99.90
9730;DHT22;4904;49.152;11.004;2022-10-16T04:16:34;15.60;99.90
9730;DHT22;4904;49.152;11.004;2022-10-16T04:19:01;15.60;99.90
9730;DHT22;4904;49.152;11.004;2022-10-16T04:21:28;15.60;99.90
9730;DHT22;4904;49.152;11.004;2022-10-16T04:23:55;15.60;99.90
9730;DHT22;4904;49.152;11.004;2022-10-16T04:26:22;15.60;99.90
9730;DHT22;4904;49.152;11.004;2022-10-16T04:28:49;15.60;99.90
9730;DHT22;4904;49.152;11.004;2022-10-16T04:31:17;15.50;99.90
9730;DHT22;4904;49.152;11.004;2022-10-16T04:33:44;15.40;99.90
9730;DHT22;4904;49.152;11.004;2022-10-16T04:36:12;15.30;99.90
9730;DHT22;4904;49.152;11.004;2022-10-16T04:38:39;15.20;99.90
9730;DHT22;4904;49.152;11.004;2022-10-16T04:41:07;15.10;99.90
9730;DHT22;4904;49.152;11.004;2022-10-16T04:43:34;14.90;99.90
9730;DHT22;4904;49.152;11.004;2022-10-16T04:46:00;14.80;99.90
9730;DHT22;4904;49.152;11.004;2022-10-16T04:48:31;14.70;99.90
9730;DHT22;4904;49.152;11.004;2022-10-16T04:50:58;14.80;99.90
9730;DHT22;4904;49.152;11.004;2022-10-16T04:53:25;14.90;99.90
9730;DHT22;4904;49.152;11.004;2022-10-16T04:55:52;15.00;99.90
9730;DHT22;4904;49.152;11.004;2022-10-16T04:58:19;15.10;99.90
9730;DHT22;4904;49.152;11.004;2022-10-16T05:00:46;15.10;99.90
9730;DHT22;4904;49.152;11.004;2022-10-16T05:03:13;15.20;99.90
9730;DHT22;4904;49.152;11.004;2022-10-16T05:05:44;15.20;99.90
9730;DHT22;4904;49.152;11.004;2022-10-16T05:08:13;15.20;99.90
9730;DHT22;4904;49.152;11.004;2022-10-16T05:10:42;15.30;99.90
9730;DHT22;4904;49.152;11.004;2022-10-16T05:13:09;15.30;99.90
9730;DHT22;4904;49.152;11.004;2022-10-16T05:15:36;15.30;99.90
9730;DHT22;4904;49.152;11.004;2022-10-16T05:18:03;15.30;99.90
9730;DHT22;4904;49.152;11.004;2022-10-16T05:20:30;15.40;99.90
9730;DHT22;4904;49.152;11.004;2022-10-16T05:22:59;15.40;99.90
9730;DHT22;4904;49.152;11.004;2022-10-16T05:25:26;15.40;99.90
9730;DHT22;4904;49.152;11.004;2022-10-16T05:27:53;15.50;99.90
9730;DHT22;4904;49.152;11.004;2022-10-16T05:30:19;15.40;99.90
9730;DHT22;4904;49.152;11.004;2022-10-16T05:32:47;15.40;99.90
9730;DHT22;4904;49.152;11.004;2022-10-16T05:35:14;15.40;99.90
9730;DHT22;4904;49.152;11.004;2022-10-16T05:37:41;15.40;99.90
9730;DHT22;4904;49.152;11.004;2022-10-16T05:40:10;15.40;99.90
9730;DHT22;4904;49.152;11.004;2022-10-16T05:42:38;15.40;99.90
9730;DHT22;4904;49.152;11.004;2022-10-16T05:45:06;15.40;99.90
9730;DHT22;4904;49.152;11.004;2022-10-16T05:47:33;15.40;99.90
9730;DHT22;4904;49.152;11.004;2022-10-16T05:50:00;15.40;99.90
9730;DHT22;4904;49.152;11.004;2022-10-16T05:52:29;15.40;99.90
9730;DHT22;4904;49.152;11.004;2022-10-16T05:54:56;15.40;99.90
9730;DHT22;4904;49.152;11.004;2022-10-16T05:57:24;15.40;99.90
9730;DHT22;4904;49.152;11.004;2022-10-16T05:59:51;15.30;99.90
9730;DHT22;4904;49.152;11.004;2022-10-16T06:02:18;15.30;99.90
9730;DHT22;4904;49.152;11.004;2022-10-16T06:04:45;15.30;99.90
9730;DHT22;4904;49.152;11.004;2022-10-16T06:07:12;15.30;99.90
9730;DHT22;4904;49.152;11.004;2022-10-16T06:09:39;15.20;99.90
9730;DHT22;4904;49.152;11.004;2022-10-16T06:12:06;15.20;99.90
9730;DHT22;4904;49.152;11.004;2022-10-16T06:14:34;15.20;99.90
9730;DHT22;4904;49.152;11.004;2022-10-16T06:17:01;15.00;99.90
9730;DHT22;4904;49.152;11.004;2022-10-16T06:19:28;15.10;99.90
9730;DHT22;4904;49.152;11.004;2022-10-16T06:21:55;15.00;99.90
9730;DHT22;4904;49.152;11.004;2022-10-16T06:24:23;14.60;99.90
9730;DHT22;4904;49.152;11.004;2022-10-16T06:26:50;14.60;99.90
9730;DHT22;4904;49.152;11.004;2022-10-16T06:29:17;14.50;99.90
9730;DHT22;4904;49.152;11.004;2022-10-16T06:31:45;14.40;99.90
9730;DHT22;4904;49.152;11.004;2022-10-16T06:34:12;14.50;99.90
9730;DHT22;4904;49.152;11.004;2022-10-16T06:36:40;14.60;99.90
9730;DHT22;4904;49.152;11.004;2022-10-16T06:39:07;14.60;99.90
9730;DHT22;4904;49.152;11.004;2022-10-16T06:41:34;14.50;99.90
9730;DHT22;4904;49.152;11.004;2022-10-16T06:44:01;14.60;99.90
9730;DHT22;4904;49.152;11.004;2022-10-16T06:46:31;14.60;99.90
9730;DHT22;4904;49.152;11.004;2022-10-16T06:49:00;14.70;99.90
9730;DHT22;4904;49.152;11.004;2022-10-16T06:51:28;14.70;99.90
9730;DHT22;4904;49.152;11.004;2022-10-16T06:53:56;14.70;99.90
9730;DHT22;4904;49.152;11.004;2022-10-16T06:56:26;14.80;99.90
9730;DHT22;4904;49.152;11.004;2022-10-16T06:58:55;14.90;99.90
9730;DHT22;4904;49.152;11.004;2022-10-16T07:01:23;15.00;99.90
9730;DHT22;4904;49.152;11.004;2022-10-16T07:03:50;15.10;99.90
9730;DHT22;4904;49.152;11.004;2022-10-16T07:06:22;15.20;99.90
9730;DHT22;4904;49.152;11.004;2022-10-16T07:08:49;15.10;99.90
9730;DHT22;4904;49.152;11.004;2022-10-16T07:11:20;15.20;99.90
9730;DHT22;4904;49.152;11.004;2022-10-16T07:13:48;15.30;99.90
9730;DHT22;4904;49.152;11.004;2022-10-16T07:16:19;15.30;99.90
9730;DHT22;4904;49.152;11.004;2022-10-16T07:18:51;15.40;99.90
9730;DHT22;4904;49.152;11.004;2022-10-16T07:21:27;15.50;99.90
9730;DHT22;4904;49.152;11.004;2022-10-16T07:23:58;15.60;99.90
9730;DHT22;4904;49.152;11.004;2022-10-16T07:26:28;15.60;99.90
9730;DHT22;4904;49.152;11.004;2022-10-16T07:28:56;15.70;99.90
9730;DHT22;4904;49.152;11.004;2022-10-16T07:31:23;15.80;99.90
9730;DHT22;4904;49.152;11.004;2022-10-16T07:33:54;15.80;99.90
9730;DHT22;4904;49.152;11.004;2022-10-16T07:36:21;15.90;99.90
9730;DHT22;4904;49.152;11.004;2022-10-16T07:38:49;15.90;99.90
9730;DHT22;4904;49.152;11.004;2022-10-16T07:41:18;15.80;99.90
9730;DHT22;4904;49.152;11.004;2022-10-16T07:43:46;15.80;99.90
9730;DHT22;4904;49.152;11.004;2022-10-16T07:46:13;15.60;99.90
9730;DHT22;4904;49.152;11.004;2022-10-16T07:48:41;15.60;99.90
9730;DHT22;4904;49.152;11.004;2022-10-16T07:51:11;15.60;99.90
9730;DHT22;4904;49.152;11.004;2022-10-16T07:53:39;15.60;99.90
9730;DHT22;4904;49.152;11.004;2022-10-16T07:56:10;15.60;99.90
9730;DHT22;4904;49.152;11.004;2022-10-16T07:58:38;15.70;99.90
9730;DHT22;4904;49.152;11.004;2022-10-16T08:01:06;15.70;99.90
9730;DHT22;4904;49.152;11.004;2022-10-16T08:03:35;15.80;99.90
9730;DHT22;4904;49.152;11.004;2022-10-16T08:06:07;15.90;99.90
9730;DHT22;4904;49.152;11.004;2022-10-16T08:08:34;16.00;99.90
9730;DHT22;4904;49.152;11.004;2022-10-16T08:11:04;16.10;99.90
9730;DHT22;4904;49.152;11.004;2022-10-16T08:13:36;16.20;99.90
9730;DHT22;4904;49.152;11.004;2022-10-16T08:16:07;16.20;99.90
9730;DHT22;4904;49.152;11.004;2022-10-16T08:18:35;16.20;99.90
9730;DHT22;4904;49.152;11.004;2022-10-16T08:21:03;16.40;99.90
9730;DHT22;4904;49.152;11.004;2022-10-16T08:23:31;16.50;99.90
9730;DHT22;4904;49.152;11.004;2022-10-16T08:26:03;16.50;99.90
9730;DHT22;4904;49.152;11.004;2022-10-16T08:28:31;16.70;99.90
9730;DHT22;4904;49.152;11.004;2022-10-16T08:31:07;16.70;99.90
9730;DHT22;4904;49.152;11.004;2022-10-16T08:33:36;16.80;99.90
9730;DHT22;4904;49.152;11.004;2022-10-16T08:36:09;16.80;99.90
9730;DHT22;4904;49.152;11.004;2022-10-16T08:38:37;16.80;99.90
9730;DHT22;4904;49.152;11.004;2022-10-16T08:41:35;16.70;99.90
9730;DHT22;4904;49.152;11.004;2022-10-16T08:47:15;17.00;99.90
9730;DHT22;4904;49.152;11.004;2022-10-16T08:49:54;17.10;99.90
9730;DHT22;4904;49.152;11.004;2022-10-16T08:52:22;17.20;99.90
9730;DHT22;4904;49.152;11.004;2022-10-16T08:54:56;17.30;99.90
9730;DHT22;4904;49.152;11.004;2022-10-16T08:57:25;17.30;99.90
9730;DHT22;4904;49.152;11.004;2022-10-16T08:59:53;17.40;99.90
9730;DHT22;4904;49.152;11.004;2022-10-16T09:02:31;17.40;99.90
9730;DHT22;4904;49.152;11.004;2022-10-16T09:05:22;17.40;99.90
9730;DHT22;4904;49.152;11.004;2022-10-16T09:07:59;17.50;99.90
9730;DHT22;4904;49.152;11.004;2022-10-16T09:10:37;17.50;99.90
9730;DHT22;4904;49.152;11.004;2022-10-16T09:13:14;17.60;99.90
9730;DHT22;4904;49.152;11.004;2022-10-16T09:15:47;17.70;99.90
9730;DHT22;4904;49.152;11.004;2022-10-16T09:18:25;17.70;99.90
9730;DHT22;4904;49.152;11.004;2022-10-16T09:20:59;17.80;99.90
9730;DHT22;4904;49.152;11.004;2022-10-16T09:23:29;17.90;99.90
9730;DHT22;4904;49.152;11.004;2022-10-16T09:25:58;18.00;99.90
9730;DHT22;4904;49.152;11.004;2022-10-16T09:28:25;17.90;99.90
9730;DHT22;4904;49.152;11.004;2022-10-16T09:30:52;17.90;99.90
9730;DHT22;4904;49.152;11.004;2022-10-16T09:33:24;17.90;99.90
9730;DHT22;4904;49.152;11.004;2022-10-16T09:35:53;18.00;99.90
9730;DHT22;4904;49.152;11.004;2022-10-16T09:38:24;18.00;99.90
9730;DHT22;4904;49.152;11.004;2022-10-16T09:40:51;18.10;99.90
9730;DHT22;4904;49.152;11.004;2022-10-16T09:43:24;18.10;99.90
9730;DHT22;4904;49.152;11.004;2022-10-16T09:45:57;18.10;99.90
9730;DHT22;4904;49.152;11.004;2022-10-16T09:48:31;18.10;99.90
9730;DHT22;4904;49.152;11.004;2022-10-16T09:51:03;18.10;99.90
9730;DHT22;4904;49.152;11.004;2022-10-16T09:53:46;18.20;99.90
9730;DHT22;4904;49.152;11.004;2022-10-16T09:56:24;18.20;99.90
9730;DHT22;4904;49.152;11.004;2022-10-16T09:58:55;18.20;99.90
9730;DHT22;4904;49.152;11.004;2022-10-16T10:01:27;18.20;99.90
9730;DHT22;4904;49.152;11.004;2022-10-16T10:03:58;18.20;99.90
9730;DHT22;4904;49.152;11.004;2022-10-16T10:06:30;18.30;99.90
9730;DHT22;4904;49.152;11.004;2022-10-16T10:09:03;18.40;99.90
9730;DHT22;4904;49.152;11.004;2022-10-16T10:11:46;18.50;99.90
9730;DHT22;4904;49.152;11.004;2022-10-16T10:14:21;18.60;99.90
9730;DHT22;4904;49.152;11.004;2022-10-16T10:16:49;18.50;99.90
9730;DHT22;4904;49.152;11.004;2022-10-16T10:19:20;18.50;99.90
9730;DHT22;4904;49.152;11.004;2022-10-16T10:21:48;18.50;99.90
9730;DHT22;4904;49.152;11.004;2022-10-16T10:24:16;18.50;99.90
9730;DHT22;4904;49.152;11.004;2022-10-16T10:26:50;18.60;99.90
9730;DHT22;4904;49.152;11.004;2022-10-16T10:29:31;18.70;99.90
9730;DHT22;4904;49.152;11.004;2022-10-16T10:32:12;18.70;99.90
9730;DHT22;4904;49.152;11.004;2022-10-16T10:35:02;18.80;99.90
9730;DHT22;4904;49.152;11.004;2022-10-16T10:37:54;18.80;99.90
9730;DHT22;4904;49.152;11.004;2022-10-16T10:40:34;18.80;99.90
9730;DHT22;4904;49.152;11.004;2022-10-16T10:43:15;19.00;99.90
9730;DHT22;4904;49.152;11.004;2022-10-16T10:45:46;19.00;99.90
9730;DHT22;4904;49.152;11.004;2022-10-16T10:48:41;19.10;99.90
9730;DHT22;4904;49.152;11.004;2022-10-16T10:51:15;19.10;99.90
9730;DHT22;4904;49.152;11.004;2022-10-16T10:53:54;19.10;99.90
9730;DHT22;4904;49.152;11.004;2022-10-16T10:56:41;19.00;99.90
9730;DHT22;4904;49.152;11.004;2022-10-16T10:59:28;19.00;99.90
9730;DHT22;4904;49.152;11.004;2022-10-16T11:02:01;19.00;99.90
9730;DHT22;4904;49.152;11.004;2022-10-16T11:05:03;19.10;99.90
9730;DHT22;4904;49.152;11.004;2022-10-16T11:07:43;19.10;99.90
9730;DHT22;4904;49.152;11.004;2022-10-16T11:10:15;19.20;99.90
9730;DHT22;4904;49.152;11.004;2022-10-16T11:12:46;19.30;99.90
9730;DHT22;4904;49.152;11.004;2022-10-16T11:15:19;19.40;99.90
9730;DHT22;4904;49.152;11.004;2022-10-16T11:17:57;19.50;99.90
9730;DHT22;4904;49.152;11.004;2022-10-16T11:20:44;19.50;99.90
9730;DHT22;4904;49.152;11.004;2022-10-16T11:23:18;19.50;99.90
9730;DHT22;4904;49.152;11.004;2022-10-16T11:25:48;19.40;99.90
9730;DHT22;4904;49.152;11.004;2022-10-16T11:28:20;19.40;99.90
9730;DHT22;4904;49.152;11.004;2022-10-16T11:30:51;19.30;99.90
9730;DHT22;4904;49.152;11.004;2022-10-16T11:33:27;19.30;99.90
9730;DHT22;4904;49.152;11.004;2022-10-16T11:36:02;19.40;99.90
9730;DHT22;4904;49.152;11.004;2022-10-16T11:38:43;19.50;99.90
9730;DHT22;4904;49.152;11.004;2022-10-16T11:41:23;19.60;99.90
9730;DHT22;4904;49.152;11.004;2022-10-16T11:44:00;19.70;99.90
9730;DHT22;4904;49.152;11.004;2022-10-16T11:46:38;19.70;99.90
9730;DHT22;4904;49.152;11.004;2022-10-16T11:49:27;19.80;99.90
9730;DHT22;4904;49.152;11.004;2022-10-16T11:52:06;19.90;99.90
9730;DHT22;4904;49.152;11.004;2022-10-16T11:54:43;19.90;99.90
9730;DHT22;4904;49.152;11.004;2022-10-16T11:57:20;19.80;99.90
9730;DHT22;4904;49.152;11.004;2022-10-16T11:59:55;20.00;99.90
9730;DHT22;4904;49.152;11.004;2022-10-16T12:02:35;20.10;99.90
9730;DHT22;4904;49.152;11.004;2022-10-16T12:05:15;20.20;99.90
9730;DHT22;4904;49.152;11.004;2022-10-16T12:07:50;20.50;99.90
9730;DHT22;4904;49.152;11.004;2022-10-16T12:10:25;20.60;99.90
9730;DHT22;4904;49.152;11.004;2022-10-16T12:12:55;20.50;99.90
9730;DHT22;4904;49.152;11.004;2022-10-16T12:15:25;20.50;99.90
9730;DHT22;4904;49.152;11.004;2022-10-16T12:17:53;20.60;99.90
9730;DHT22;4904;49.152;11.004;2022-10-16T12:20:27;20.80;99.90
9730;DHT22;4904;49.152;11.004;2022-10-16T12:22:59;21.00;99.90
9730;DHT22;4904;49.152;11.004;2022-10-16T12:25:31;21.10;99.90
9730;DHT22;4904;49.152;11.004;2022-10-16T12:28:00;21.10;99.90
9730;DHT22;4904;49.152;11.004;2022-10-16T12:30:30;21.20;99.90
9730;DHT22;4904;49.152;11.004;2022-10-16T12:32:59;21.30;99.90
9730;DHT22;4904;49.152;11.004;2022-10-16T12:35:30;21.50;99.90
9730;DHT22;4904;49.152;11.004;2022-10-16T12:38:15;21.70;99.90
9730;DHT22;4904;49.152;11.004;2022-10-16T12:40:45;21.80;99.90
9730;DHT22;4904;49.152;11.004;2022-10-16T12:43:25;21.90;99.90
9730;DHT22;4904;49.152;11.004;2022-10-16T12:46:03;22.10;99.90
9730;DHT22;4904;49.152;11.004;2022-10-16T12:48:31;22.00;99.90
9730;DHT22;4904;49.152;11.004;2022-10-16T12:51:10;21.90;99.90
9730;DHT22;4904;49.152;11.004;2022-10-16T12:53:37;21.90;99.90
9730;DHT22;4904;49.152;11.004;2022-10-16T12:56:12;21.80;99.90
9730;DHT22;4904;49.152;11.004;2022-10-16T12:59:01;21.80;99.90
9730;DHT22;4904;49.152;11.004;2022-10-16T13:01:46;21.80;99.90
9730;DHT22;4904;49.152;11.004;2022-10-16T13:04:29;21.90;99.90
9730;DHT22;4904;49.152;11.004;2022-10-16T13:07:33;22.00;99.90
9730;DHT22;4904;49.152;11.004;2022-10-16T13:10:13;22.20;99.90
9730;DHT22;4904;49.152;11.004;2022-10-16T13:13:09;22.40;99.90
9730;DHT22;4904;49.152;11.004;2022-10-16T13:15:53;22.60;99.90
9730;DHT22;4904;49.152;11.004;2022-10-16T13:18:29;22.70;99.90
9730;DHT22;4904;49.152;11.004;2022-10-16T13:21:12;22.60;99.90
9730;DHT22;4904;49.152;11.004;2022-10-16T13:23:48;22.60;99.90
9730;DHT22;4904;49.152;11.004;2022-10-16T13:26:30;22.60;99.90
9730;DHT22;4904;49.152;11.004;2022-10-16T13:29:06;22.40;99.90
9730;DHT22;4904;49.152;11.004;2022-10-16T13:31:33;22.40;99.90
9730;DHT22;4904;49.152;11.004;2022-10-16T13:34:01;22.40;99.90
9730;DHT22;4904;49.152;11.004;2022-10-16T13:36:30;22.60;99.90
9730;DHT22;4904;49.152;11.004;2022-10-16T13:39:06;22.40;99.90
9730;DHT22;4904;49.152;11.004;2022-10-16T13:41:33;22.40;99.90
9730;DHT22;4904;49.152;11.004;2022-10-16T13:44:01;22.60;99.90
9730;DHT22;4904;49.152;11.004;2022-10-16T13:46:29;22.80;99.90
9730;DHT22;4904;49.152;11.004;2022-10-16T13:49:01;22.40;99.90
9730;DHT22;4904;49.152;11.004;2022-10-16T13:51:29;22.10;99.90
9730;DHT22;4904;49.152;11.004;2022-10-16T13:53:57;22.10;99.90
9730;DHT22;4904;49.152;11.004;2022-10-16T13:56:26;22.10;99.90
9730;DHT22;4904;49.152;11.004;2022-10-16T13:59:01;22.10;99.90
9730;DHT22;4904;49.152;11.004;2022-10-16T14:01:32;22.00;99.90
9730;DHT22;4904;49.152;11.004;2022-10-16T14:04:02;21.80;99.90
9730;DHT22;4904;49.152;11.004;2022-10-16T14:06:32;21.90;99.90
9730;DHT22;4904;49.152;11.004;2022-10-16T14:09:04;22.00;99.90
9730;DHT22;4904;49.152;11.004;2022-10-16T14:11:48;21.90;99.90
9730;DHT22;4904;49.152;11.004;2022-10-16T14:14:17;21.90;99.90
9730;DHT22;4904;49.152;11.004;2022-10-16T14:16:47;22.00;99.90
9730;DHT22;4904;49.152;11.004;2022-10-16T14:19:19;22.20;99.90
9730;DHT22;4904;49.152;11.004;2022-10-16T14:21:47;22.50;99.90
9730;DHT22;4904;49.152;11.004;2022-10-16T14:24:25;22.50;99.90
9730;DHT22;4904;49.152;11.004;2022-10-16T14:26:53;22.30;99.90
9730;DHT22;4904;49.152;11.004;2022-10-16T14:29:23;22.20;99.90
9730;DHT22;4904;49.152;11.004;2022-10-16T14:31:58;22.40;99.90
9730;DHT22;4904;49.152;11.004;2022-10-16T14:34:29;22.80;99.90
9730;DHT22;4904;49.152;11.004;2022-10-16T14:37:08;23.00;99.90
9730;DHT22;4904;49.152;11.004;2022-10-16T14:39:36;23.00;99.90
9730;DHT22;4904;49.152;11.004;2022-10-16T14:42:05;22.60;99.90
9730;DHT22;4904;49.152;11.004;2022-10-16T14:44:42;22.30;99.90
9730;DHT22;4904;49.152;11.004;2022-10-16T14:47:16;22.20;99.90
9730;DHT22;4904;49.152;11.004;2022-10-16T14:49:54;22.20;99.90
9730;DHT22;4904;49.152;11.004;2022-10-16T14:52:24;22.10;99.90
9730;DHT22;4904;49.152;11.004;2022-10-16T14:54:51;21.90;99.90
9730;DHT22;4904;49.152;11.004;2022-10-16T14:57:22;21.80;99.90
9730;DHT22;4904;49.152;11.004;2022-10-16T14:59:52;21.70;99.90
9730;DHT22;4904;49.152;11.004;2022-10-16T15:02:27;21.40;99.90
9730;DHT22;4904;49.152;11.004;2022-10-16T15:04:55;21.40;99.90
9730;DHT22;4904;49.152;11.004;2022-10-16T15:07:23;21.50;99.90
9730;DHT22;4904;49.152;11.004;2022-10-16T15:09:51;21.60;99.90
9730;DHT22;4904;49.152;11.004;2022-10-16T15:12:19;21.60;99.90
9730;DHT22;4904;49.152;11.004;2022-10-16T15:14:47;21.60;99.90
9730;DHT22;4904;49.152;11.004;2022-10-16T15:17:18;21.50;99.90
9730;DHT22;4904;49.152;11.004;2022-10-16T15:19:51;21.40;99.90
9730;DHT22;4904;49.152;11.004;2022-10-16T15:22:18;21.30;99.90
9730;DHT22;4904;49.152;11.004;2022-10-16T15:24:45;21.30;99.90
9730;DHT22;4904;49.152;11.004;2022-10-16T15:27:12;21.20;99.90
9730;DHT22;4904;49.152;11.004;2022-10-16T15:29:39;21.20;99.90
9730;DHT22;4904;49.152;11.004;2022-10-16T15:32:06;21.00;99.90
9730;DHT22;4904;49.152;11.004;2022-10-16T15:34:33;21.00;99.90
9730;DHT22;4904;49.152;11.004;2022-10-16T15:37:03;21.00;99.90
9730;DHT22;4904;49.152;11.004;2022-10-16T15:39:30;20.90;99.90
9730;DHT22;4904;49.152;11.004;2022-10-16T15:41:57;20.90;99.90
9730;DHT22;4904;49.152;11.004;2022-10-16T15:44:24;20.90;99.90
9730;DHT22;4904;49.152;11.004;2022-10-16T15:46:55;20.90;99.90
9730;DHT22;4904;49.152;11.004;2022-10-16T15:49:23;20.90;99.90
9730;DHT22;4904;49.152;11.004;2022-10-16T15:51:50;20.90;99.90
9730;DHT22;4904;49.152;11.004;2022-10-16T15:54:19;20.80;99.90
9730;DHT22;4904;49.152;11.004;2022-10-16T15:56:48;20.80;99.90
9730;DHT22;4904;49.152;11.004;2022-10-16T15:59:15;20.70;99.90
9730;DHT22;4904;49.152;11.004;2022-10-16T16:01:42;20.50;99.90
9730;DHT22;4904;49.152;11.004;2022-10-16T16:04:09;20.40;99.90
9730;DHT22;4904;49.152;11.004;2022-10-16T16:06:37;20.20;99.90
9730;DHT22;4904;49.152;11.004;2022-10-16T16:09:10;20.00;99.90
9730;DHT22;4904;49.152;11.004;2022-10-16T16:11:38;19.90;99.90